Time;durP1;ratioP1;P1;durP2;ratioP2;P2;SDS_P1;SDS_P2;PMS_P1;PMS_P2;Temp;Humidity;BMP_temperature;BMP_pressure;BME280_temperature;BME280_humidity;BME280_pressure;Samples;Min_cycle;Max_cycle;Signal;HPM_P1;HPM_P2
2022/08/18 00:00:59;;;;;;;55.88;50.65;;;;;;;18.33;100.00;101223.09;5093152;28;20031;-65
2022/08/18 00:03:28;;;;;;;59.00;53.30;;;;;;;18.34;100.00;101220.47;5093992;28;20467;-67
2022/08/18 00:05:54;;;;;;;54.55;49.55;;;;;;;18.36;100.00;101217.84;5093247;28;20586;-67
2022/08/18 00:08:19;;;;;;;59.97;54.05;;;;;;;18.38;100.00;101220.47;5093810;28;20103;-67
2022/08/18 00:10:44;;;;;;;61.47;55.28;;;;;;;18.38;100.00;101229.25;5093147;28;20020;-67
2022/08/18 00:13:10;;;;;;;60.42;54.47;;;;;;;18.37;100.00;101235.34;5093738;28;20027;-67
2022/08/18 00:15:35;;;;;;;59.25;53.75;;;;;;;18.39;100.00;101232.72;5093640;28;20023;-67
2022/08/18 00:18:00;;;;;;;56.35;51.22;;;;;;;18.39;100.00;101238.84;5093092;28;20038;-66
2022/08/18 00:20:25;;;;;;;57.22;51.90;;;;;;;18.39;100.00;101233.59;5080745;28;20374;-67
2022/08/18 00:22:51;;;;;;;57.55;51.97;;;;;;;18.40;100.00;101232.75;5092574;28;20026;-66
2022/08/18 00:25:19;;;;;;;56.22;50.72;;;;;;;18.40;100.00;101230.13;5093595;28;20063;-66
2022/08/18 00:27:44;;;;;;;54.95;49.65;;;;;;;18.43;100.00;101231.88;5092872;28;20081;-67
2022/08/18 00:30:13;;;;;;;55.35;50.35;;;;;;;18.45;100.00;101238.91;5093492;28;20028;-66
2022/08/18 00:32:42;;;;;;;53.10;48.13;;;;;;;18.46;100.00;101243.28;5093650;28;20298;-66
2022/08/18 00:35:13;;;;;;;53.03;48.05;;;;;;;18.48;100.00;101241.53;5094380;28;20633;-67
2022/08/18 00:37:39;;;;;;;51.63;46.75;;;;;;;18.51;100.00;101237.19;5093253;28;20103;-66
2022/08/18 00:40:06;;;;;;;52.75;47.70;;;;;;;18.52;100.00;101244.16;5093510;28;20426;-67
2022/08/18 00:42:32;;;;;;;57.40;51.97;;;;;;;18.52;100.00;101241.53;5092609;28;20474;-65
2022/08/18 00:45:01;;;;;;;56.25;50.92;;;;;;;18.50;100.00;101252.03;5093610;28;20103;-64
2022/08/18 00:47:28;;;;;;;51.67;46.72;;;;;;;18.50;100.00;101259.03;5093357;28;20020;-64
2022/08/18 00:49:53;;;;;;;52.35;47.42;;;;;;;18.51;100.00;101260.78;5093158;28;20111;-65
2022/08/18 00:52:21;;;;;;;53.17;47.97;;;;;;;18.54;100.00;101258.19;5092648;28;20153;-65
2022/08/18 00:54:47;;;;;;;52.90;47.78;;;;;;;18.55;100.00;101254.66;5093013;28;20027;-65
2022/08/18 00:57:17;;;;;;;54.85;49.72;;;;;;;18.54;100.00;101247.69;5090481;28;20174;-64
2022/08/18 00:59:49;;;;;;;52.97;47.90;;;;;;;18.53;100.00;101248.56;5089784;28;20028;-64
2022/08/18 01:02:36;;;;;;;54.50;49.33;;;;;;;18.50;100.00;101245.91;5089798;28;20483;-65
2022/08/18 01:05:29;;;;;;;52.60;47.55;;;;;;;18.45;100.00;101246.78;5089391;28;20032;-65
2022/08/18 01:07:55;;;;;;;55.00;49.85;;;;;;;18.41;100.00;101252.88;5065123;28;20042;-65
2022/08/18 01:10:22;;;;;;;55.90;50.42;;;;;;;18.37;100.00;101251.06;5089827;28;20471;-65
2022/08/18 01:12:51;;;;;;;54.13;48.78;;;;;;;18.34;100.00;101251.06;5089469;28;20012;-65
2022/08/18 01:15:19;;;;;;;55.20;49.58;;;;;;;18.34;100.00;101245.81;5089569;28;20028;-65
2022/08/18 01:23:47;;;;;;;56.42;51.00;;;;;;;18.32;100.00;101239.69;5065821;28;20106;-65
2022/08/18 01:26:14;;;;;;;54.50;49.00;;;;;;;18.29;100.00;101244.91;5089150;28;20016;-64
2022/08/18 01:28:43;;;;;;;56.53;50.95;;;;;;;18.29;100.00;101243.19;5089534;28;20376;-64
2022/08/18 01:31:12;;;;;;;51.70;46.65;;;;;;;18.28;100.00;101244.03;5089547;28;20130;-64
2022/08/18 01:33:40;;;;;;;54.40;48.97;;;;;;;18.29;100.00;101242.28;5090051;28;20443;-64
2022/08/18 01:36:16;;;;;;;52.47;47.50;;;;;;;18.27;100.00;101244.03;5089147;28;20032;-64
2022/08/18 01:38:44;;;;;;;53.58;48.58;;;;;;;18.23;100.00;101251.88;5088749;28;20441;-64
2022/08/18 01:41:10;;;;;;;54.88;49.45;;;;;;;18.21;100.00;101244.84;5088652;28;20078;-64
2022/08/18 01:43:35;;;;;;;53.03;48.08;;;;;;;18.18;100.00;101244.84;5088941;28;20056;-65
2022/08/18 01:46:03;;;;;;;51.25;46.45;;;;;;;18.17;100.00;101246.59;5088898;28;20103;-64
2022/08/18 01:48:33;;;;;;;54.15;48.90;;;;;;;18.18;100.00;101243.09;5089342;28;20658;-64
2022/08/18 01:50:59;;;;;;;51.00;46.30;;;;;;;18.17;100.00;101241.34;5088978;28;20024;-64
2022/08/18 01:53:25;;;;;;;52.67;47.63;;;;;;;18.17;100.00;101241.34;5088331;28;20297;-64
2022/08/18 01:55:51;;;;;;;52.15;47.10;;;;;;;18.13;100.00;101231.69;5088996;28;20024;-65
2022/08/18 01:58:16;;;;;;;53.00;47.78;;;;;;;18.13;100.00;101231.69;5089048;28;20032;-64
2022/08/18 02:00:41;;;;;;;51.58;46.70;;;;;;;18.11;100.00;101230.78;5088717;28;20399;-64
2022/08/18 02:03:11;;;;;;;51.13;46.42;;;;;;;18.09;100.00;101229.91;5088321;28;20036;-64
2022/08/18 02:05:42;;;;;;;52.72;47.72;;;;;;;18.06;100.00;101227.25;5088625;28;20399;-64
2022/08/18 02:08:08;;;;;;;;;;;;;;;18.00;100.00;101221.13;5089138;28;20028;-64
2022/08/18 02:10:33;;;;;;;48.67;43.70;;;;;;;17.97;100.00;101230.69;5088521;28;19915;-64
2022/08/18 02:12:59;;;;;;;52.35;47.15;;;;;;;17.91;100.00;101221.03;5088469;28;20016;-64
2022/08/18 02:15:25;;;;;;;51.10;45.92;;;;;;;17.90;100.00;101221.88;5088533;28;20023;-64
2022/08/18 02:17:50;;;;;;;52.15;46.92;;;;;;;17.86;100.00;101228.84;5087901;28;20081;-64
2022/08/18 02:20:17;;;;;;;50.63;45.78;;;;;;;17.83;100.00;101227.94;5088538;28;20024;-64
2022/08/18 02:22:44;;;;;;;52.25;47.08;;;;;;;17.80;100.00;101238.41;5088027;28;20028;-64
2022/08/18 02:25:10;;;;;;;51.00;46.30;;;;;;;17.79;100.00;101237.53;5088522;28;20509;-64
2022/08/18 02:27:35;;;;;;;48.75;44.30;;;;;;;17.79;100.00;101236.66;5087542;28;20020;-64
2022/08/18 02:30:05;;;;;;;49.42;44.80;;;;;;;17.75;100.00;101241.88;5088232;28;20480;-65
2022/08/18 02:32:31;;;;;;;48.67;44.17;;;;;;;17.71;100.00;101249.69;5088191;28;20019;-64
2022/08/18 02:34:56;;;;;;;49.90;45.35;;;;;;;17.67;100.00;101238.31;5088158;28;20379;-64
2022/08/18 02:37:21;;;;;;;49.90;45.30;;;;;;;17.61;100.00;101238.28;5087954;28;20034;-64
2022/08/18 02:39:47;;;;;;;48.58;43.97;;;;;;;17.57;100.00;101236.47;5087972;28;20103;-64
2022/08/18 02:42:13;;;;;;;49.22;44.47;;;;;;;17.54;100.00;101241.69;5087599;28;20044;-65
2022/08/18 02:44:38;;;;;;;47.88;43.58;;;;;;;17.51;100.00;101247.78;5088165;28;20056;-65
2022/08/18 02:47:04;;;;;;;48.60;44.20;;;;;;;17.46;100.00;101247.75;5087558;28;20074;-64
2022/08/18 02:49:29;;;;;;;49.28;44.78;;;;;;;17.42;100.00;101248.56;5088444;28;20484;-65
2022/08/18 02:51:54;;;;;;;48.70;44.10;;;;;;;17.39;100.00;101252.03;5087763;28;20107;-65
2022/08/18 02:54:22;;;;;;;47.47;42.85;;;;;;;17.37;100.00;101256.38;5088039;28;20107;-65
2022/08/18 02:56:50;;;;;;;47.55;43.17;;;;;;;17.34;100.00;101255.47;5087742;28;20512;-65
2022/08/18 02:59:19;;;;;;;45.47;41.13;;;;;;;17.31;100.00;101255.41;5088066;28;20103;-65
2022/08/18 03:01:49;;;;;;;47.55;43.03;;;;;;;17.27;100.00;101250.16;5087565;28;20051;-65
2022/08/18 03:04:22;;;;;;;48.20;43.50;;;;;;;17.24;100.00;101250.13;5087518;28;20023;-65
2022/08/18 03:06:48;;;;;;;47.35;42.85;;;;;;;17.20;100.00;101250.94;5087793;28;20391;-65
2022/08/18 03:09:16;;;;;;;45.85;41.78;;;;;;;17.19;100.00;101251.81;5087849;28;20016;-65
2022/08/18 03:11:42;;;;;;;46.90;42.53;;;;;;;17.17;100.00;101253.53;5087692;28;20035;-65
2022/08/18 03:14:07;;;;;;;49.08;44.45;;;;;;;17.12;100.00;101258.75;5087829;28;20032;-65
2022/08/18 03:16:34;;;;;;;49.42;44.67;;;;;;;17.08;100.00;101253.41;5087129;28;20020;-65
2022/08/18 03:19:00;;;;;;;48.35;43.60;;;;;;;17.05;100.00;101257.72;5088112;28;20779;-65
2022/08/18 03:21:28;;;;;;;48.40;43.80;;;;;;;17.03;100.00;101251.63;5087130;28;20178;-65
2022/08/18 03:23:55;;;;;;;48.13;43.28;;;;;;;17.01;100.00;101258.59;5087403;28;20063;-65
2022/08/18 03:26:22;;;;;;;48.60;43.92;;;;;;;16.99;100.00;101260.28;5087072;28;20020;-65
2022/08/18 03:28:50;;;;;;;49.17;44.42;;;;;;;16.98;100.00;101262.91;5088106;28;20042;-65
2022/08/18 03:31:17;;;;;;;50.70;45.90;;;;;;;16.94;100.00;101256.75;5087625;28;20471;-65
2022/08/18 03:33:44;;;;;;;53.88;48.75;;;;;;;16.93;100.00;101253.25;5087557;28;20511;-65
2022/08/18 03:36:15;;;;;;;54.25;48.47;;;;;;;16.93;100.00;101268.06;5087628;28;20398;-65
2022/08/18 03:38:42;;;;;;;56.88;50.88;;;;;;;16.91;100.00;101267.16;5087042;28;20012;-65
2022/08/18 03:41:08;;;;;;;53.42;48.03;;;;;;;16.88;100.00;101267.13;5087058;28;20693;-65
2022/08/18 03:43:34;;;;;;;51.58;46.38;;;;;;;16.87;100.00;101265.38;5087029;28;20039;-65
2022/08/18 03:46:01;;;;;;;56.45;50.72;;;;;;;16.84;100.00;101271.44;5087193;28;20095;-65
2022/08/18 03:48:27;;;;;;;54.85;49.15;;;;;;;16.86;100.00;101271.47;5087457;28;20110;-65
2022/08/18 03:50:52;;;;;;;52.78;47.53;;;;;;;16.89;100.00;101268.91;5086819;28;20165;-65
2022/08/18 03:53:18;;;;;;;51.35;46.35;;;;;;;16.91;100.00;101267.16;5087105;28;20106;-65
2022/08/18 03:55:43;;;;;;;51.28;46.55;;;;;;;16.96;100.00;101265.50;5086843;28;20023;-65
2022/08/18 03:58:13;;;;;;;48.00;43.38;;;;;;;16.98;100.00;101266.38;5087638;28;20024;-65
2022/08/18 04:00:39;;;;;;;49.90;44.80;;;;;;;17.00;100.00;101259.41;5087219;28;20432;-65
2022/08/18 04:03:05;;;;;;;46.65;42.10;;;;;;;17.04;100.00;101258.59;5086765;28;20063;-65
2022/08/18 04:05:34;;;;;;;47.60;43.00;;;;;;;17.07;100.00;101249.91;5087243;28;20468;-65
2022/08/18 04:08:01;;;;;;;47.30;42.80;;;;;;;17.11;100.00;101256.06;5087360;28;20032;-65
2022/08/18 04:10:26;;;;;;;46.17;41.75;;;;;;;17.13;100.00;101260.50;5086759;28;20093;-66
2022/08/18 04:12:52;;;;;;;46.53;42.03;;;;;;;17.16;100.00;101262.28;5086635;28;20020;-66
2022/08/18 04:15:17;;;;;;;44.80;40.70;;;;;;;17.17;100.00;101264.03;5087125;28;20024;-66
2022/08/18 04:17:44;;;;;;;45.25;40.97;;;;;;;17.20;100.00;101258.81;5086485;28;20032;-66
2022/08/18 04:20:11;;;;;;;43.42;39.53;;;;;;;17.23;100.00;101256.25;5086609;28;20034;-66
2022/08/18 04:22:37;;;;;;;44.13;40.00;;;;;;;17.25;100.00;101264.97;5086129;28;20031;-65
2022/08/18 04:25:02;;;;;;;45.45;41.03;;;;;;;17.26;100.00;101264.13;5086525;28;20020;-65
2022/08/18 04:27:28;;;;;;;44.78;40.13;;;;;;;17.27;100.00;101265.88;5085378;28;20547;-65
2022/08/18 04:29:55;;;;;;;44.00;39.55;;;;;;;17.30;100.00;101264.16;5085387;28;20038;-64
2022/08/18 04:32:21;;;;;;;45.58;41.28;;;;;;;17.31;100.00;101260.66;5085878;28;20020;-64
2022/08/18 04:34:47;;;;;;;45.40;41.00;;;;;;;17.31;100.00;101263.28;5087490;28;20465;-64
2022/08/18 04:37:14;;;;;;;46.55;41.85;;;;;;;17.28;100.00;101259.78;5089034;28;20024;-64
2022/08/18 04:39:40;;;;;;;49.15;44.20;;;;;;;17.29;100.00;101263.25;5089759;28;20016;-64
2022/08/18 04:42:05;;;;;;;48.47;43.70;;;;;;;17.26;100.00;101264.13;5090372;28;20094;-64
2022/08/18 04:44:30;;;;;;;49.47;44.60;;;;;;;17.22;100.00;101267.56;5090758;28;20058;-64
2022/08/18 04:46:56;;;;;;;51.00;45.92;;;;;;;17.21;100.00;101271.06;5090255;28;20051;-64
2022/08/18 04:49:24;;;;;;;49.63;45.03;;;;;;;17.22;100.00;101269.28;5090357;28;20020;-64
2022/08/18 04:54:38;;;;;;;51.47;46.50;;;;;;;17.20;100.00;101269.28;5089776;28;20042;-64
2022/08/18 04:57:12;;;;;;;51.55;46.10;;;;;;;17.22;100.00;101278.03;5090316;28;20038;-64
2022/08/18 04:59:39;;;;;;;50.42;45.05;;;;;;;17.24;100.00;101285.91;5090026;28;20028;-63
2022/08/18 05:02:06;;;;;;;53.58;48.00;;;;;;;17.24;100.00;101276.31;5089842;28;20020;-64
2022/08/18 05:04:33;;;;;;;54.35;48.70;;;;;;;17.23;100.00;101277.19;5088861;28;20038;-64
2022/08/18 05:06:59;;;;;;;53.20;47.45;;;;;;;17.25;100.00;101283.31;5090007;28;20032;-64
2022/08/18 05:09:25;;;;;;;55.33;49.63;;;;;;;17.25;100.00;101287.69;5089948;28;20466;-64
2022/08/18 05:11:50;;;;;;;52.55;47.05;;;;;;;17.26;100.00;101295.56;5089649;28;20052;-64
2022/08/18 05:14:16;;;;;;;54.17;48.38;;;;;;;17.28;100.00;101295.56;5089959;28;20387;-64
2022/08/18 05:16:41;;;;;;;54.95;49.08;;;;;;;17.30;100.00;101292.97;5090185;28;20027;-64
2022/08/18 05:19:10;;;;;;;53.83;48.13;;;;;;;17.32;100.00;101293.84;5089739;28;20075;-64
2022/08/18 05:21:36;;;;;;;53.30;47.85;;;;;;;17.34;100.00;101293.00;5089528;28;20027;-64
2022/08/18 05:24:04;;;;;;;54.90;48.97;;;;;;;17.35;100.00;101293.88;5089525;28;20032;-64
2022/08/18 05:26:30;;;;;;;54.85;49.05;;;;;;;17.37;100.00;101287.81;5089684;28;20103;-64
2022/08/18 05:28:56;;;;;;;57.50;51.33;;;;;;;17.37;100.00;101286.94;5089678;28;20032;-64
2022/08/18 05:31:24;;;;;;;56.22;50.40;;;;;;;17.36;100.00;101296.50;5088728;28;20027;-64
2022/08/18 05:33:50;;;;;;;56.83;50.75;;;;;;;17.38;100.00;101304.38;5089487;28;20039;-64
2022/08/18 05:36:24;;;;;;;55.13;49.30;;;;;;;17.37;100.00;101297.41;5089287;28;20069;-64
2022/08/18 05:39:01;;;;;;;56.70;50.58;;;;;;;17.38;100.00;101299.16;5089419;28;20616;-64
2022/08/18 05:41:32;;;;;;;56.17;49.83;;;;;;;17.35;100.00;101304.38;5089183;28;20093;-64
2022/08/18 05:44:00;;;;;;;60.42;50.42;;;;;;;17.33;100.00;101301.72;5088539;28;20056;-64
2022/08/18 05:46:54;;;;;;;56.08;50.22;;;;;;;17.35;100.00;101304.38;5089550;28;20046;-64
2022/08/18 05:49:21;;;;;;;54.20;48.58;;;;;;;17.40;100.00;101300.03;5088774;28;20474;-64
2022/08/18 05:51:59;;;;;;;54.80;49.03;;;;;;;17.44;100.00;101294.00;5088608;28;20028;-64
2022/08/18 05:57:26;;;;;;;54.30;48.35;;;;;;;17.52;100.00;101300.19;5088405;28;20031;-64
2022/08/18 05:59:53;;;;;;;54.35;48.53;;;;;;;17.53;100.00;101311.53;5089183;28;20032;-64
2022/08/18 06:02:39;;;;;;;53.80;48.03;;;;;;;17.55;100.00;101311.56;5089352;28;20541;-64
2022/08/18 06:05:10;;;;;;;52.72;47.33;;;;;;;17.59;100.00;101311.59;5088785;28;20035;-64
2022/08/18 06:07:43;;;;;;;55.83;49.95;;;;;;;17.65;100.00;101313.41;5083416;28;20027;-64
2022/08/18 06:10:10;;;;;;;51.33;45.88;;;;;;;17.70;100.00;101311.69;5081088;28;20472;-64
2022/08/18 06:12:42;;;;;;;51.42;46.00;;;;;;;17.73;100.00;101311.75;5089069;28;20012;-64
2022/08/18 06:15:27;;;;;;;49.55;44.42;;;;;;;17.77;100.00;101302.19;5088846;28;20044;-64
2022/08/18 06:18:18;;;;;;;50.05;45.05;;;;;;;17.81;100.00;101308.34;5089182;28;20118;-64
2022/08/18 06:21:05;;;;;;;48.58;43.75;;;;;;;17.85;100.00;101312.72;5088243;28;20024;-64
2022/08/18 06:23:34;;;;;;;49.30;44.30;;;;;;;17.84;100.00;101310.97;5088721;28;20107;-64
2022/08/18 06:26:39;;;;;;;47.60;42.85;;;;;;;17.87;100.00;101321.47;5088374;28;20034;-64
2022/08/18 06:29:07;;;;;;;47.78;42.97;;;;;;;17.87;100.00;101318.84;5088683;28;20020;-64
2022/08/18 06:31:46;;;;;;;47.88;42.88;;;;;;;17.88;100.00;101321.50;5060721;28;20589;-64
2022/08/18 06:34:28;;;;;;;47.97;43.10;;;;;;;17.91;100.00;101325.00;5088021;28;20074;-64
2022/08/18 06:36:59;;;;;;;47.25;42.65;;;;;;;17.93;100.00;101333.75;5065101;28;20311;-64
2022/08/18 06:39:39;;;;;;;47.80;43.05;;;;;;;17.95;100.00;101335.53;5088319;28;20483;-64
2022/08/18 06:42:04;;;;;;;46.67;42.10;;;;;;;17.98;100.00;101327.72;5087741;28;20422;-64
2022/08/18 06:44:49;;;;;;;49.08;44.13;;;;;;;18.00;100.00;101331.22;5088480;28;20187;-64
2022/08/18 06:47:48;;;;;;;47.38;42.58;;;;;;;18.04;100.00;101337.38;5086429;28;20490;-64
2022/08/18 06:50:24;;;;;;;42.45;38.22;;;;;;;18.06;100.00;101335.63;5087917;28;20020;-64
2022/08/18 06:52:57;;;;;;;41.63;37.45;;;;;;;18.09;100.00;101337.41;5087815;28;20107;-65
2022/08/18 06:55:32;;;;;;;41.30;37.40;;;;;;;18.12;100.00;101334.81;5087122;28;20107;-64
2022/08/18 06:58:00;;;;;;;44.75;40.25;;;;;;;18.19;100.00;101331.41;5087870;28;20375;-65
2022/08/18 07:00:29;;;;;;;43.25;38.97;;;;;;;18.26;100.00;101326.22;5087949;28;20722;-64
2022/08/18 07:03:00;;;;;;;46.03;41.38;;;;;;;18.37;100.00;101337.66;5088126;28;20028;-64
2022/08/18 07:05:33;;;;;;;45.58;41.05;;;;;;;18.50;100.00;101335.09;5087477;28;20110;-64
2022/08/18 07:08:16;;;;;;;43.63;39.35;;;;;;;18.59;100.00;101335.19;5079327;28;20259;-64
2022/08/18 07:10:48;;;;;;;41.63;37.60;;;;;;;18.56;100.00;101343.03;5084170;28;20036;-64
2022/08/18 07:13:21;;;;;;;39.97;36.08;;;;;;;18.54;100.00;101347.38;5087430;28;20032;-64
2022/08/18 07:15:48;;;;;;;41.90;37.83;;;;;;;18.51;100.00;101342.13;5087161;28;20219;-64
2022/08/18 07:18:20;;;;;;;38.00;34.17;;;;;;;18.54;100.00;101331.66;5087717;28;20669;-64
2022/08/18 07:20:54;;;;;;;41.08;36.97;;;;;;;18.59;100.00;101341.31;5087350;28;20019;-64
2022/08/18 07:23:27;;;;;;;36.83;33.53;;;;;;;18.60;100.00;101340.44;5087654;28;20107;-64
2022/08/18 07:26:01;;;;;;;37.28;33.88;;;;;;;18.67;100.00;101335.22;5086933;28;20467;-64
2022/08/18 07:28:28;;;;;;;37.63;34.03;;;;;;;18.71;100.00;101345.75;5087404;28;20120;-64
2022/08/18 07:31:10;;;;;;;39.08;35.58;;;;;;;18.74;100.00;101349.25;5087644;28;20039;-64
2022/08/18 07:33:36;;;;;;;35.72;32.35;;;;;;;18.79;100.00;101347.53;5087131;28;20453;-64
2022/08/18 07:36:05;;;;;;;34.35;31.23;;;;;;;18.81;100.00;101337.94;5087895;28;20020;-65
2022/08/18 07:38:41;;;;;;;33.42;30.40;;;;;;;18.81;100.00;101335.31;5086730;28;20118;-65
2022/08/18 07:41:23;;;;;;;37.08;33.40;;;;;;;18.78;100.00;101338.78;5087470;28;20101;-65
2022/08/18 07:43:51;;;;;;;36.90;33.40;;;;;;;18.96;100.00;101352.88;5087238;28;20089;-65
2022/08/18 07:46:35;;;;;;;38.28;34.63;;;;;;;19.18;100.00;101346.00;5086470;28;20028;-65
2022/08/18 07:49:01;;;;;;;31.65;28.60;;;;;;;19.23;100.00;101355.66;5087458;28;20024;-64
2022/08/18 07:51:46;;;;;;;30.17;27.40;;;;;;;19.31;100.00;101352.19;5087187;28;20384;-64
2022/08/18 07:54:27;;;;;;;31.90;28.50;;;;;;;19.39;100.00;101343.47;5087521;28;20032;-65
2022/08/18 07:57:05;;;;;;;;;;;;;;;19.42;100.00;101344.34;5087876;28;20376;-65
2022/08/18 07:59:47;;;;;;;28.08;25.50;;;;;;;19.32;100.00;101337.28;5086852;28;19960;-65
2022/08/18 08:02:22;;;;;;;30.90;28.10;;;;;;;19.38;100.00;101341.69;5086907;28;20073;-64
2022/08/18 08:05:13;;;;;;;29.05;26.52;;;;;;;19.68;100.00;101345.28;5087237;28;20112;-64
2022/08/18 08:08:01;;;;;;;25.88;23.63;;;;;;;20.24;100.00;101344.47;5090449;28;20027;-64
2022/08/18 08:10:38;;;;;;;21.23;19.23;;;;;;;20.82;100.00;101342.63;5091214;28;20202;-64
2022/08/18 08:13:46;;;;;;;20.27;18.48;;;;;;;21.27;100.00;101348.63;5090985;28;20032;-64
2022/08/18 08:16:27;;;;;;;20.35;17.83;;;;;;;21.32;100.00;101338.94;5090693;28;20027;-64
2022/08/18 08:18:58;;;;;;;20.65;18.92;;;;;;;21.25;100.00;101346.00;5091026;28;20082;-63
2022/08/18 08:21:30;;;;;;;21.55;19.65;;;;;;;21.19;100.00;101340.78;5064097;28;20051;-64
2022/08/18 08:24:12;;;;;;;23.08;20.88;;;;;;;21.09;100.00;101343.44;5090495;28;20457;-64
2022/08/18 08:27:20;;;;;;;20.45;18.65;;;;;;;21.05;100.00;101348.72;5066044;28;20399;-64
2022/08/18 08:30:05;;;;;;;18.33;16.83;;;;;;;21.15;100.00;101354.84;5090457;28;20028;-64
2022/08/18 08:32:33;;;;;;;18.65;16.90;;;;;;;21.28;100.00;101356.53;5090094;28;20040;-64
2022/08/18 08:35:13;;;;;;;20.75;18.67;;;;;;;21.53;100.00;101351.16;5090977;28;20024;-64
2022/08/18 08:38:07;;;;;;;22.67;20.45;;;;;;;21.96;100.00;101349.13;5090427;28;20038;-64
2022/08/18 08:40:43;;;;;;;21.88;19.85;;;;;;;22.17;100.00;101342.78;5084384;28;20054;-64
2022/08/18 08:43:22;;;;;;;21.45;19.42;;;;;;;22.45;100.00;101351.34;5090011;28;20078;-64
2022/08/18 08:45:59;;;;;;;20.15;18.33;;;;;;;22.65;100.00;101351.16;5065131;28;20024;-64
2022/08/18 08:48:28;;;;;;;18.95;17.40;;;;;;;22.72;100.00;101360.75;5090494;28;20028;-64
2022/08/18 08:51:01;;;;;;;19.00;17.30;;;;;;;22.65;100.00;101359.06;5090553;28;20024;-63
2022/08/18 08:53:42;;;;;;;18.20;16.63;;;;;;;22.55;99.16;101359.16;5090317;28;20028;-63
2022/08/18 08:56:13;;;;;;;19.42;17.67;;;;;;;22.51;100.00;101360.06;5090596;28;20039;-64
2022/08/18 08:58:48;;;;;;;17.98;16.40;;;;;;;22.45;99.09;101368.03;5089565;28;20122;-64
2022/08/18 09:01:40;;;;;;;17.67;16.17;;;;;;;22.53;99.74;101366.22;5090126;28;20320;-63
2022/08/18 09:04:38;;;;;;;18.45;16.95;;;;;;;22.51;97.80;101359.19;5090431;28;20039;-63
2022/08/18 09:07:34;;;;;;;18.48;16.98;;;;;;;22.41;100.00;101351.34;5090121;28;20109;-63
2022/08/18 09:10:24;;;;;;;16.73;15.32;;;;;;;22.49;100.00;101353.94;5090202;28;20110;-63
2022/08/18 09:13:17;;;;;;;17.20;15.43;;;;;;;22.62;97.06;101356.44;5090016;28;20016;-63
2022/08/18 09:16:08;;;;;;;16.95;15.45;;;;;;;22.66;100.00;101360.84;5069750;28;20275;-63
2022/08/18 09:19:07;;;;;;;13.63;12.52;;;;;;;22.75;100.00;101360.75;5076662;28;20020;-63
2022/08/18 09:21:44;;;;;;;14.07;12.48;;;;;;;22.76;98.30;101362.50;5033788;28;20032;-63
2022/08/18 09:24:30;;;;;;;13.27;12.18;;;;;;;22.69;96.21;101354.63;5089435;28;20035;-63
2022/08/18 09:27:01;;;;;;;13.95;12.75;;;;;;;22.66;97.06;101358.22;5090160;28;20365;-64
2022/08/18 09:29:36;;;;;;;13.55;12.23;;;;;;;22.77;96.56;101361.59;5089455;28;20023;-64
2022/08/18 09:32:19;;;;;;;14.82;13.57;;;;;;;22.97;94.03;101360.47;5089581;28;20028;-64
2022/08/18 09:35:09;;;;;;;14.20;12.90;;;;;;;23.13;95.54;101355.03;5089504;28;20099;-64
2022/08/18 09:44:08;;;;;;;11.77;10.65;;;;;;;23.33;92.92;101346.81;5089007;28;20116;-64
2022/08/18 09:46:40;;;;;;;9.73;8.93;;;;;;;23.34;89.90;101348.59;5089700;28;20055;-64
2022/08/18 09:49:37;;;;;;;10.85;9.95;;;;;;;23.35;88.99;101350.31;5062648;28;20020;-64
2022/08/18 09:52:26;;;;;;;9.88;8.98;;;;;;;23.34;87.17;101345.94;5088861;28;20056;-64
2022/08/18 09:54:59;;;;;;;9.32;8.52;;;;;;;23.35;91.07;101344.19;5080885;28;20488;-64
2022/08/18 09:57:30;;;;;;;9.52;8.52;;;;;;;23.38;90.10;101349.41;5089015;28;20380;-64
2022/08/18 10:00:11;;;;;;;8.55;7.82;;;;;;;23.40;90.82;101355.56;5089281;28;20419;-64
2022/08/18 10:02:36;;;;;;;8.63;7.82;;;;;;;23.37;89.83;101360.88;5089213;28;20115;-64
2022/08/18 10:07:43;;;;;;;10.38;9.43;;;;;;;23.19;90.38;101352.28;5088824;28;20161;-64
2022/08/18 10:10:57;;;;;;;9.15;8.25;;;;;;;23.14;92.58;101351.47;5088870;28;20032;-64
2022/08/18 10:13:41;;;;;;;8.38;7.68;;;;;;;23.08;89.71;101346.28;5089113;28;20024;-65
2022/08/18 10:16:09;;;;;;;8.00;7.40;;;;;;;23.29;91.19;101342.50;5088139;28;20535;-64
2022/08/18 10:19:13;;;;;;;8.52;7.80;;;;;;;23.54;92.09;101343.94;5088677;28;20472;-64
2022/08/18 10:21:57;;;;;;;8.25;7.53;;;;;;;23.86;86.67;101335.50;5066105;28;20480;-65
2022/08/18 10:24:51;;;;;;;7.72;7.03;;;;;;;24.15;87.45;101340.34;5088464;28;20071;-65
2022/08/18 10:27:43;;;;;;;9.20;8.38;;;;;;;24.24;81.44;101340.22;5088308;28;20024;-65
2022/08/18 10:30:31;;;;;;;9.55;8.80;;;;;;;24.06;78.43;101341.38;5065326;28;20353;-65
2022/08/18 10:32:57;;;;;;;10.32;9.55;;;;;;;23.83;80.11;101332.03;5088552;28;20032;-65
2022/08/18 10:35:35;;;;;;;11.07;10.07;;;;;;;23.72;83.19;101327.81;5088608;28;20050;-64
2022/08/18 10:38:22;;;;;;;10.82;9.93;;;;;;;23.69;84.85;101330.47;5087971;28;20028;-64
2022/08/18 10:41:03;;;;;;;10.52;9.63;;;;;;;23.59;82.93;101327.09;5087876;28;20138;-65
2022/08/18 10:43:37;;;;;;;9.80;9.00;;;;;;;23.48;83.59;101331.66;5088260;28;20028;-65
2022/08/18 10:46:02;;;;;;;11.10;10.13;;;;;;;23.37;86.87;101337.06;5088549;28;20024;-65
2022/08/18 10:48:33;;;;;;;9.88;8.98;;;;;;;23.29;86.21;101338.97;5088026;28;20085;-64
2022/08/18 10:51:14;;;;;;;10.55;9.57;;;;;;;23.23;84.93;101337.28;5088047;28;20028;-65
2022/08/18 10:53:52;;;;;;;10.48;9.57;;;;;;;23.19;86.35;101332.94;5088002;28;20073;-65
2022/08/18 10:56:29;;;;;;;10.57;9.63;;;;;;;23.33;84.88;101332.75;5087812;28;20028;-64
2022/08/18 10:59:09;;;;;;;10.13;9.20;;;;;;;23.69;85.47;101326.97;5087864;28;20036;-64
2022/08/18 11:02:01;;;;;;;10.10;9.23;;;;;;;23.96;81.18;101330.94;5087649;28;20043;-64
2022/08/18 11:04:46;;;;;;;10.30;9.40;;;;;;;24.28;81.00;101336.63;5061801;28;20059;-64
2022/08/18 11:07:18;;;;;;;10.60;9.70;;;;;;;24.29;77.11;101333.06;5087843;28;20035;-64
2022/08/18 11:09:48;;;;;;;10.35;9.45;;;;;;;24.25;77.76;101331.34;5088118;28;20028;-64
2022/08/18 11:12:13;;;;;;;9.60;8.73;;;;;;;24.13;77.07;101327.13;5087249;28;20020;-63
2022/08/18 11:15:17;;;;;;;10.30;9.38;;;;;;;23.99;78.28;101325.59;5087886;28;20760;-64
2022/08/18 11:17:45;;;;;;;10.27;9.48;;;;;;;23.88;77.65;101330.19;5087030;28;20660;-64
2022/08/18 11:20:15;;;;;;;12.10;11.10;;;;;;;23.73;77.75;101329.53;5087836;28;20038;-64
2022/08/18 11:22:50;;;;;;;9.65;8.75;;;;;;;23.69;80.57;101321.69;5087589;28;20039;-64
2022/08/18 11:25:29;;;;;;;9.85;8.02;;;;;;;23.71;83.06;101310.16;5087490;28;20031;-64
2022/08/18 11:27:55;;;;;;;9.48;8.63;;;;;;;23.79;81.08;101296.81;5087771;28;20027;-65
2022/08/18 11:30:25;;;;;;;8.63;7.93;;;;;;;23.89;81.33;101292.25;5087602;28;20023;-65
2022/08/18 11:32:51;;;;;;;8.63;7.90;;;;;;;24.04;80.81;101300.81;5087273;28;20020;-64
2022/08/18 11:35:30;;;;;;;9.48;8.60;;;;;;;24.11;78.44;101302.47;5087780;28;20024;-64
2022/08/18 11:38:02;;;;;;;9.10;8.20;;;;;;;24.14;76.69;101301.53;5087173;28;20038;-63
2022/08/18 11:40:35;;;;;;;9.10;8.30;;;;;;;24.14;77.13;101290.97;5087023;28;20111;-64
2022/08/18 11:43:08;;;;;;;11.88;8.30;;;;;;;24.11;78.47;101289.22;5087375;28;20028;-63
2022/08/18 11:45:43;;;;;;;8.38;7.78;;;;;;;24.18;80.86;101282.03;5086680;28;20114;-64
2022/08/18 11:48:14;;;;;;;8.60;7.75;;;;;;;24.39;78.62;101275.53;5087584;28;20028;-64
2022/08/18 11:50:51;;;;;;;8.70;7.10;;;;;;;24.53;74.07;101277.03;5087394;28;20093;-64
2022/08/18 11:53:31;;;;;;;7.88;7.30;;;;;;;24.55;73.76;101276.09;5087422;28;20032;-65